Aviation Digital Data Service (ADDS)

Output produced by METARs form (0308 UTC 22 February 2019)
found at http://www.aviationweather.gov/metar/data/
 
Forecast for: VCBI (COLOMBO/KATUNAYA, LK)
Text: TAF VCBI 212300Z 2200/2306 05010KT 9999 FEW020 TX33/2207Z TN24/2200Z
Forecast period: 0000 UTC 22 February 2019 to 0600 UTC 23 February 2019
Forecast type: FROM: standard forecast or significant change
Winds: from the NE (50 degrees) at 12 MPH (10 knots; 5.1 m/s)
Visibility: 6 or more miles 10+ km)
Ceiling: at least 12,000 feet AGL
Clouds: few clouds at 2000 feet AGL
Weather: no significant weather forecast for this period